createdAt,value
2018-12-30T00:01:43.174Z,1.00
2018-12-30T00:04:09.552Z,1.00
2018-12-30T00:06:36.035Z,1.00
2018-12-30T00:09:04.620Z,1.00
2018-12-30T00:11:31.296Z,1.00
2018-12-30T00:13:57.496Z,1.10
2018-12-30T00:16:23.689Z,1.10
2018-12-30T00:18:49.856Z,1.10
2018-12-30T00:21:16.039Z,1.20
2018-12-30T00:23:42.211Z,1.20
2018-12-30T00:26:08.396Z,1.30
2018-12-30T00:28:34.571Z,1.30
2018-12-30T00:31:00.773Z,1.30
2018-12-30T00:33:26.935Z,1.30
2018-12-30T00:35:53.147Z,1.30
2018-12-30T00:38:19.319Z,1.30
2018-12-30T00:40:45.513Z,1.40
2018-12-30T00:43:11.675Z,2.10
2018-12-30T00:45:37.985Z,1.40
2018-12-30T00:48:04.180Z,1.40
2018-12-30T00:50:30.383Z,1.30
2018-12-30T00:52:56.554Z,1.30
2018-12-30T00:55:22.745Z,1.30
2018-12-30T00:57:48.936Z,1.30
2018-12-30T01:00:15.128Z,1.40
2018-12-30T01:02:41.299Z,1.40
2018-12-30T01:05:07.504Z,1.30
2018-12-30T01:07:33.693Z,1.30
2018-12-30T01:09:59.860Z,1.30
2018-12-30T01:12:26.068Z,1.40
2018-12-30T01:14:53.148Z,1.40
2018-12-30T01:17:19.336Z,1.50
2018-12-30T01:19:45.512Z,1.40
2018-12-30T01:22:11.714Z,1.40
2018-12-30T01:24:37.879Z,1.50
2018-12-30T01:27:04.043Z,1.40
2018-12-30T01:29:30.233Z,1.50
2018-12-30T01:31:56.417Z,1.50
2018-12-30T01:34:22.603Z,1.60
2018-12-30T01:36:48.906Z,1.70
2018-12-30T01:39:15.100Z,1.70
2018-12-30T01:41:41.738Z,1.80
2018-12-30T01:44:07.918Z,1.60
2018-12-30T01:46:34.083Z,1.50
2018-12-30T01:49:00.298Z,1.40
2018-12-30T01:51:33.011Z,1.40
2018-12-30T01:53:54.428Z,1.50
2018-12-30T01:56:20.617Z,1.50
2018-12-30T01:58:47.068Z,1.50
2018-12-30T02:01:13.239Z,1.60
2018-12-30T02:03:39.434Z,1.60
2018-12-30T02:06:05.623Z,1.60
2018-12-30T02:08:31.795Z,1.60
2018-12-30T02:10:57.985Z,1.50
2018-12-30T02:13:24.454Z,1.60
2018-12-30T02:15:50.634Z,1.60
2018-12-30T02:18:16.707Z,1.60
2018-12-30T02:20:42.910Z,1.80
2018-12-30T02:23:09.001Z,1.70
2018-12-30T02:25:35.234Z,1.70
2018-12-30T02:28:01.523Z,1.70
2018-12-30T02:30:27.688Z,1.80
2018-12-30T02:32:53.872Z,1.70
2018-12-30T02:35:20.088Z,1.60
2018-12-30T02:37:46.280Z,1.70
2018-12-30T02:40:12.451Z,1.60
2018-12-30T02:42:38.519Z,1.60
2018-12-30T02:45:24.876Z,1.70
2018-12-30T02:47:51.004Z,1.20
2018-12-30T02:50:17.188Z,1.70
2018-12-30T02:52:43.361Z,1.80
2018-12-30T02:55:09.859Z,1.70
2018-12-30T02:57:36.028Z,1.70
2018-12-30T03:00:03.522Z,1.70
2018-12-30T03:02:29.683Z,1.80
2018-12-30T03:04:55.859Z,1.70
2018-12-30T03:07:21.950Z,1.80
2018-12-30T03:09:48.428Z,1.90
2018-12-30T03:12:14.511Z,1.90
2018-12-30T03:14:40.710Z,1.90
2018-12-30T03:17:06.875Z,1.80
2018-12-30T03:19:32.981Z,1.80
2018-12-30T03:21:59.691Z,1.90
2018-12-30T03:24:26.304Z,1.90
2018-12-30T03:26:52.389Z,1.90
2018-12-30T03:29:18.483Z,2.00
2018-12-30T03:31:44.578Z,2.00
2018-12-30T03:34:10.853Z,2.00
2018-12-30T03:36:36.944Z,1.90
2018-12-30T03:39:05.526Z,1.90
2018-12-30T03:41:32.933Z,1.90
2018-12-30T03:43:59.071Z,2.00
2018-12-30T03:46:25.238Z,2.00
2018-12-30T03:48:51.323Z,2.00
2018-12-30T03:51:17.394Z,2.10
2018-12-30T03:53:43.479Z,2.10
2018-12-30T03:56:09.568Z,2.10
2018-12-30T03:58:35.656Z,2.10
2018-12-30T04:01:01.723Z,2.10
2018-12-30T04:03:27.809Z,2.10
2018-12-30T04:05:53.907Z,2.00
2018-12-30T04:08:19.996Z,2.00
2018-12-30T04:10:46.062Z,2.10
2018-12-30T04:13:12.148Z,2.10
2018-12-30T04:15:38.227Z,2.10
2018-12-30T04:18:04.419Z,2.10
2018-12-30T04:20:30.484Z,2.00
2018-12-30T04:22:56.560Z,2.00
2018-12-30T04:25:22.651Z,2.00
2018-12-30T04:27:48.728Z,2.00
2018-12-30T04:30:14.936Z,2.00
2018-12-30T04:32:41.004Z,1.90
2018-12-30T04:35:07.112Z,1.90
2018-12-30T04:37:33.181Z,1.90
2018-12-30T04:39:59.291Z,1.90
2018-12-30T04:42:25.372Z,1.90
2018-12-30T04:44:51.473Z,1.90
2018-12-30T04:47:17.644Z,2.00
2018-12-30T04:49:43.739Z,1.90
2018-12-30T04:52:09.804Z,1.90
2018-12-30T04:54:35.893Z,1.90
2018-12-30T04:57:01.956Z,2.00
2018-12-30T04:59:28.053Z,2.00
2018-12-30T05:01:54.140Z,2.10
2018-12-30T05:04:20.224Z,2.10
2018-12-30T05:06:46.304Z,1.90
2018-12-30T05:09:12.404Z,2.10
2018-12-30T05:11:38.479Z,2.10
2018-12-30T05:14:04.564Z,2.00
2018-12-30T05:16:30.635Z,2.00
2018-12-30T05:18:56.720Z,2.00
2018-12-30T05:21:22.803Z,2.00
2018-12-30T05:23:48.884Z,2.10
2018-12-30T05:26:14.951Z,2.10
2018-12-30T05:28:41.040Z,2.00
2018-12-30T05:31:07.151Z,2.00
2018-12-30T05:33:33.234Z,2.00
2018-12-30T05:35:59.360Z,2.00
2018-12-30T05:38:25.494Z,2.00
2018-12-30T05:40:51.587Z,2.00
2018-12-30T05:43:17.676Z,2.00
2018-12-30T05:45:43.781Z,2.00
2018-12-30T05:48:09.960Z,2.00
2018-12-30T05:50:36.051Z,2.10
2018-12-30T05:53:02.220Z,2.00
2018-12-30T05:55:28.304Z,2.10
2018-12-30T05:57:54.375Z,2.10
2018-12-30T06:00:20.458Z,2.00
2018-12-30T06:02:46.529Z,2.00
2018-12-30T06:05:12.607Z,1.90
2018-12-30T06:07:38.676Z,2.00
2018-12-30T06:10:04.867Z,2.00
2018-12-30T06:12:30.942Z,2.00
2018-12-30T06:14:57.127Z,2.00
2018-12-30T06:17:23.201Z,2.00
2018-12-30T06:19:49.298Z,1.90
2018-12-30T06:22:15.370Z,1.90
2018-12-30T06:24:41.451Z,1.90
2018-12-30T06:27:07.511Z,1.90
2018-12-30T06:29:33.579Z,1.90
2018-12-30T06:31:59.876Z,1.90
2018-12-30T06:34:25.944Z,1.80
2018-12-30T06:36:52.042Z,1.80
2018-12-30T06:39:18.111Z,1.70
2018-12-30T06:41:44.193Z,1.80
2018-12-30T06:44:10.259Z,1.80
2018-12-30T06:46:36.347Z,1.80
2018-12-30T06:49:02.415Z,1.80
2018-12-30T06:51:31.310Z,1.80
2018-12-30T06:53:57.384Z,1.90
2018-12-30T06:56:23.874Z,1.80
2018-12-30T06:58:49.959Z,1.80
2018-12-30T07:01:16.015Z,1.80
2018-12-30T07:03:42.085Z,1.80
2018-12-30T07:06:08.245Z,1.80
2018-12-30T07:08:34.290Z,1.90
2018-12-30T07:11:00.356Z,2.00
2018-12-30T07:13:26.408Z,2.00
2018-12-30T07:15:52.461Z,2.00
2018-12-30T07:18:18.520Z,1.90
2018-12-30T07:20:44.587Z,2.00
2018-12-30T07:23:10.692Z,1.90
2018-12-30T07:25:36.758Z,1.90
2018-12-30T07:28:02.826Z,2.00
2018-12-30T07:30:28.925Z,1.90
2018-12-30T07:32:54.998Z,2.00
2018-12-30T07:35:21.107Z,1.90
2018-12-30T07:37:47.259Z,1.80
2018-12-30T07:40:13.423Z,1.80
2018-12-30T07:42:39.507Z,1.80
2018-12-30T07:45:05.579Z,1.80
2018-12-30T07:47:31.660Z,1.80
2018-12-30T07:52:42.747Z,2.00
2018-12-30T07:55:08.804Z,1.90
2018-12-30T07:57:34.882Z,2.00
2018-12-30T08:00:00.964Z,2.00
2018-12-30T08:02:27.047Z,1.90
2018-12-30T08:04:53.124Z,1.90
2018-12-30T08:07:19.211Z,2.00
2018-12-30T08:09:45.299Z,2.00
2018-12-30T08:12:11.384Z,1.90
2018-12-30T08:14:37.483Z,1.90
2018-12-30T08:17:03.554Z,1.90
2018-12-30T08:19:29.615Z,1.90
2018-12-30T08:21:55.712Z,2.00
2018-12-30T08:24:21.789Z,2.00
2018-12-30T08:26:47.849Z,2.00
2018-12-30T08:29:13.935Z,2.10
2018-12-30T08:31:40.021Z,2.10
2018-12-30T08:34:06.111Z,2.10
2018-12-30T08:36:32.179Z,2.10
2018-12-30T08:38:58.280Z,2.10
2018-12-30T08:41:24.431Z,2.10
2018-12-30T08:43:50.572Z,2.10
2018-12-30T08:46:16.844Z,2.20
2018-12-30T08:48:42.933Z,2.20
2018-12-30T08:51:10.296Z,2.30
2018-12-30T08:53:36.621Z,2.30
2018-12-30T08:56:02.692Z,2.30
2018-12-30T08:58:28.790Z,2.30
2018-12-30T09:00:54.856Z,2.30
2018-12-30T09:03:20.999Z,2.30
2018-12-30T09:05:47.167Z,2.30
2018-12-30T09:08:13.236Z,2.30
2018-12-30T09:10:39.434Z,2.40
2018-12-30T09:13:05.607Z,2.40
2018-12-30T09:15:31.701Z,2.40
2018-12-30T09:17:57.789Z,2.40
2018-12-30T09:20:23.868Z,2.40
2018-12-30T09:22:50.072Z,2.40
2018-12-30T09:25:16.146Z,2.30
2018-12-30T09:27:42.233Z,2.40
2018-12-30T09:30:08.305Z,2.50
2018-12-30T09:32:34.411Z,2.50
2018-12-30T09:35:00.476Z,2.60
2018-12-30T09:37:26.564Z,2.60
2018-12-30T09:39:52.638Z,2.60
2018-12-30T09:42:18.711Z,2.50
2018-12-30T09:44:44.779Z,2.60
2018-12-30T09:47:10.875Z,2.50
2018-12-30T09:49:36.948Z,2.50
2018-12-30T09:52:03.136Z,2.60
2018-12-30T09:54:29.321Z,2.70
2018-12-30T09:56:55.396Z,2.80
2018-12-30T09:59:22.841Z,2.70
2018-12-30T10:01:48.953Z,2.60
2018-12-30T10:04:15.032Z,2.70
2018-12-30T10:06:41.123Z,2.70
2018-12-30T10:09:07.249Z,2.70
2018-12-30T10:11:33.483Z,2.70
2018-12-30T10:13:59.572Z,2.60
2018-12-30T10:16:25.644Z,2.60
2018-12-30T10:18:51.723Z,2.60
2018-12-30T10:21:18.000Z,2.60
2018-12-30T10:23:44.074Z,2.70
2018-12-30T10:26:10.164Z,2.80
2018-12-30T10:28:36.247Z,2.80
2018-12-30T10:31:02.335Z,2.80
2018-12-30T10:33:28.422Z,2.80
2018-12-30T10:35:54.488Z,2.70
2018-12-30T10:38:20.586Z,2.80
2018-12-30T10:40:46.664Z,2.80
2018-12-30T10:43:12.735Z,2.90
2018-12-30T10:45:38.855Z,3.00
2018-12-30T10:48:04.923Z,3.00
2018-12-30T10:50:31.006Z,2.90
2018-12-30T10:52:57.075Z,2.90
2018-12-30T10:55:23.181Z,2.90
2018-12-30T10:57:49.255Z,2.90
2018-12-30T11:00:15.524Z,3.00
2018-12-30T11:02:41.603Z,3.00
2018-12-30T11:05:07.673Z,3.00
2018-12-30T11:07:33.876Z,3.00
2018-12-30T11:09:59.940Z,3.00
2018-12-30T11:12:26.007Z,2.90
2018-12-30T11:14:52.117Z,3.00
2018-12-30T11:17:18.185Z,3.00
2018-12-30T11:19:44.247Z,2.90
2018-12-30T11:22:10.331Z,3.00
2018-12-30T11:24:36.415Z,3.00
2018-12-30T11:27:02.484Z,3.00
2018-12-30T11:29:28.580Z,3.00
2018-12-30T11:31:54.983Z,3.00
2018-12-30T11:34:21.067Z,3.00
2018-12-30T11:36:47.134Z,3.10
2018-12-30T11:39:13.227Z,3.10
2018-12-30T11:41:39.347Z,2.90
2018-12-30T11:44:05.453Z,3.00
2018-12-30T11:46:31.504Z,3.00
2018-12-30T11:48:57.554Z,3.00
2018-12-30T11:51:23.621Z,3.00
2018-12-30T11:53:49.673Z,3.10
2018-12-30T11:56:15.753Z,3.10
2018-12-30T11:58:41.822Z,3.20
2018-12-30T12:01:07.920Z,3.30
2018-12-30T12:03:33.998Z,3.20
2018-12-30T12:06:00.070Z,3.20
2018-12-30T12:08:26.159Z,3.10
2018-12-30T12:10:52.240Z,3.10
2018-12-30T12:13:18.369Z,3.10
2018-12-30T12:15:44.496Z,3.10
2018-12-30T12:18:10.571Z,3.10
2018-12-30T12:20:36.662Z,3.10
2018-12-30T12:23:02.743Z,3.10
2018-12-30T12:25:28.915Z,3.20
2018-12-30T12:27:54.998Z,3.10
2018-12-30T12:30:21.092Z,3.10
2018-12-30T12:32:47.188Z,3.30
2018-12-30T12:35:13.270Z,3.30
2018-12-30T12:37:39.339Z,3.30
2018-12-30T12:40:05.472Z,3.20
2018-12-30T12:42:31.540Z,3.10
2018-12-30T12:44:57.630Z,3.10
2018-12-30T12:47:23.700Z,3.20
2018-12-30T12:49:49.767Z,3.20
2018-12-30T12:52:16.347Z,3.20
2018-12-30T12:54:42.435Z,3.20
2018-12-30T12:57:08.520Z,3.20
2018-12-30T12:59:34.578Z,3.10
2018-12-30T13:02:00.654Z,3.10
2018-12-30T13:04:26.730Z,3.20
2018-12-30T13:06:52.817Z,3.20
2018-12-30T13:09:18.892Z,3.30
2018-12-30T13:11:44.957Z,3.30
2018-12-30T13:14:11.035Z,3.30
2018-12-30T13:16:37.109Z,3.30
2018-12-30T13:19:03.204Z,3.20
2018-12-30T13:21:29.277Z,3.30
2018-12-30T13:23:55.347Z,3.20
2018-12-30T13:26:21.437Z,3.30
2018-12-30T13:28:47.495Z,3.30
2018-12-30T13:31:13.603Z,3.20
2018-12-30T13:33:39.672Z,3.30
2018-12-30T13:36:07.840Z,3.40
2018-12-30T13:38:34.030Z,3.40
2018-12-30T13:41:00.119Z,3.20
2018-12-30T13:43:26.184Z,3.40
2018-12-30T13:45:52.275Z,3.30
2018-12-30T13:48:18.368Z,3.30
2018-12-30T13:50:47.351Z,3.30
2018-12-30T13:53:13.423Z,3.30
2018-12-30T13:55:39.508Z,3.30
2018-12-30T13:58:05.595Z,3.30
2018-12-30T14:00:31.655Z,3.40
2018-12-30T14:02:57.743Z,3.40
2018-12-30T14:05:23.809Z,3.30
2018-12-30T14:07:49.896Z,3.30
2018-12-30T14:10:15.954Z,3.30
2018-12-30T14:12:42.043Z,3.30
2018-12-30T14:15:08.132Z,3.30
2018-12-30T14:17:34.360Z,3.20
2018-12-30T14:20:00.488Z,3.30
2018-12-30T14:22:26.567Z,3.20
2018-12-30T14:24:55.441Z,3.20
2018-12-30T14:27:20.622Z,3.20
2018-12-30T14:29:46.692Z,3.20
2018-12-30T14:32:12.791Z,3.20
2018-12-30T14:34:38.859Z,3.30
2018-12-30T14:37:04.944Z,3.20
2018-12-30T14:39:31.025Z,3.10
2018-12-30T14:41:57.235Z,3.10
2018-12-30T14:44:23.303Z,3.10
2018-12-30T14:46:49.395Z,3.20
2018-12-30T14:49:15.467Z,3.30
2018-12-30T14:51:41.572Z,3.20
2018-12-30T14:54:07.647Z,3.10
2018-12-30T14:56:33.816Z,3.10
2018-12-30T14:58:59.907Z,3.00
2018-12-30T15:01:25.975Z,2.90
2018-12-30T15:03:52.100Z,3.10
2018-12-30T15:06:18.178Z,3.10
2018-12-30T15:08:44.313Z,3.10
2018-12-30T15:11:10.423Z,3.10
2018-12-30T15:13:36.512Z,3.10
2018-12-30T15:16:02.680Z,3.10
2018-12-30T15:18:28.807Z,3.10
2018-12-30T15:20:54.939Z,3.10
2018-12-30T15:23:21.024Z,3.20
2018-12-30T15:25:47.091Z,3.10
2018-12-30T15:28:13.206Z,3.20
2018-12-30T15:30:39.275Z,3.20
2018-12-30T15:33:05.359Z,3.20
2018-12-30T15:35:31.456Z,3.10
2018-12-30T15:37:57.532Z,3.00
2018-12-30T15:40:23.626Z,3.10
2018-12-30T15:42:49.696Z,3.00
2018-12-30T15:45:15.771Z,3.00
2018-12-30T15:47:41.851Z,3.00
2018-12-30T15:50:09.394Z,3.00
2018-12-30T15:52:35.511Z,3.00
2018-12-30T15:55:01.574Z,3.00
2018-12-30T15:57:27.689Z,3.10
2018-12-30T15:59:53.772Z,3.10
2018-12-30T16:02:19.941Z,3.00
2018-12-30T16:04:46.023Z,2.90
2018-12-30T16:07:12.096Z,2.90
2018-12-30T16:09:38.184Z,2.80
2018-12-30T16:12:04.259Z,2.80
2018-12-30T16:14:30.343Z,2.80
2018-12-30T16:16:56.418Z,2.80
2018-12-30T16:19:22.495Z,2.80
2018-12-30T16:21:48.568Z,2.70
2018-12-30T16:24:14.752Z,2.70
2018-12-30T16:26:40.836Z,2.70
2018-12-30T16:29:06.916Z,2.70
2018-12-30T16:31:32.993Z,2.60
2018-12-30T16:33:59.129Z,2.70
2018-12-30T16:36:25.215Z,2.70
2018-12-30T16:38:51.283Z,2.70
2018-12-30T16:41:17.360Z,2.60
2018-12-30T16:43:43.424Z,2.60
2018-12-30T16:46:09.495Z,2.70
2018-12-30T16:48:35.551Z,2.60
2018-12-30T16:51:01.635Z,2.70
2018-12-30T16:53:27.713Z,2.60
2018-12-30T16:55:53.788Z,2.60
2018-12-30T16:58:19.856Z,2.60
2018-12-30T17:00:45.950Z,2.60
2018-12-30T17:03:12.018Z,2.70
2018-12-30T17:05:38.166Z,2.70
2018-12-30T17:08:04.215Z,2.70
2018-12-30T17:10:30.298Z,2.70
2018-12-30T17:12:56.374Z,2.80
2018-12-30T17:15:22.474Z,2.90
2018-12-30T17:17:48.610Z,2.90
2018-12-30T17:20:14.769Z,2.80
2018-12-30T17:23:00.736Z,2.80
2018-12-30T17:25:26.833Z,2.70
2018-12-30T17:27:52.914Z,2.80
2018-12-30T17:30:19.099Z,2.80
2018-12-30T17:32:45.190Z,2.80
2018-12-30T17:35:11.370Z,2.80
2018-12-30T17:37:37.439Z,2.80
2018-12-30T17:40:05.112Z,2.80
2018-12-30T17:42:31.188Z,2.80
2018-12-30T17:44:57.256Z,2.80
2018-12-30T17:47:23.348Z,2.80
2018-12-30T17:49:49.429Z,2.70
2018-12-30T17:52:15.528Z,2.80
2018-12-30T17:54:41.597Z,2.80
2018-12-30T17:57:07.695Z,2.90
2018-12-30T17:59:33.773Z,2.90
2018-12-30T18:01:59.846Z,2.90
2018-12-30T18:04:25.919Z,2.90
2018-12-30T18:06:51.999Z,3.00
2018-12-30T18:09:18.156Z,3.00
2018-12-30T18:11:44.381Z,2.90
2018-12-30T18:14:10.451Z,3.00
2018-12-30T18:16:36.539Z,3.00
2018-12-30T18:19:02.608Z,3.10
2018-12-30T18:21:28.683Z,3.10
2018-12-30T18:23:54.755Z,3.00
2018-12-30T18:26:20.868Z,3.00
2018-12-30T18:28:46.939Z,2.90
2018-12-30T18:31:13.023Z,2.90
2018-12-30T18:33:39.103Z,2.90
2018-12-30T18:36:05.194Z,2.90
2018-12-30T18:38:31.260Z,2.90
2018-12-30T18:40:57.344Z,2.90
2018-12-30T18:43:23.402Z,2.90
2018-12-30T18:45:49.488Z,3.00
2018-12-30T18:48:15.568Z,3.00
2018-12-30T18:50:41.639Z,2.90
2018-12-30T18:53:07.724Z,2.90
2018-12-30T18:55:33.792Z,2.90
2018-12-30T18:58:19.752Z,2.90
2018-12-30T19:00:45.822Z,3.00
2018-12-30T19:03:11.887Z,3.00
2018-12-30T19:05:37.988Z,2.90
2018-12-30T19:08:04.068Z,2.90
2018-12-30T19:10:30.151Z,2.90
2018-12-30T19:12:56.218Z,3.00
2018-12-30T19:15:22.376Z,2.90
2018-12-30T19:17:48.541Z,3.00
2018-12-30T19:20:14.745Z,3.10
2018-12-30T19:22:40.938Z,3.10
2018-12-30T19:25:07.019Z,3.10
2018-12-30T19:27:33.107Z,3.10
2018-12-30T19:29:59.245Z,3.10
2018-12-30T19:32:25.442Z,3.20
2018-12-30T19:34:51.506Z,3.10
2018-12-30T19:37:17.684Z,3.00
2018-12-30T19:39:43.840Z,2.90
2018-12-30T19:42:09.897Z,3.00
2018-12-30T19:44:35.979Z,3.00
2018-12-30T19:47:02.091Z,3.00
2018-12-30T19:49:28.164Z,3.00
2018-12-30T19:51:54.231Z,3.00
2018-12-30T19:54:20.316Z,2.90
2018-12-30T19:56:46.408Z,3.00
2018-12-30T19:59:12.491Z,3.00
2018-12-30T20:01:38.570Z,3.00
2018-12-30T20:04:04.760Z,3.00
2018-12-30T20:06:30.857Z,3.00
2018-12-30T20:08:56.962Z,3.00
2018-12-30T20:11:23.127Z,3.10
2018-12-30T20:13:49.213Z,3.00
2018-12-30T20:16:15.288Z,3.10
2018-12-30T20:18:41.371Z,3.10
2018-12-30T20:21:07.436Z,3.20
2018-12-30T20:23:33.519Z,3.20
2018-12-30T20:25:59.588Z,3.20
2018-12-30T20:28:25.700Z,3.30
2018-12-30T20:30:51.772Z,3.40
2018-12-30T20:33:17.864Z,3.20
2018-12-30T20:35:45.846Z,3.30
2018-12-30T20:38:11.957Z,3.20
2018-12-30T20:40:38.032Z,3.20
2018-12-30T20:43:04.213Z,3.30
2018-12-30T20:45:30.280Z,3.40
2018-12-30T20:47:56.375Z,3.50
2018-12-30T20:50:22.444Z,3.50
2018-12-30T20:52:48.528Z,3.40
2018-12-30T20:55:14.788Z,3.40
2018-12-30T20:57:40.872Z,3.30
2018-12-30T21:00:28.783Z,3.20
2018-12-30T21:02:54.866Z,3.20
2018-12-30T21:05:20.947Z,3.20
2018-12-30T21:07:47.030Z,3.20
2018-12-30T21:10:13.111Z,3.20
2018-12-30T21:12:39.197Z,3.20
2018-12-30T21:15:05.887Z,3.20
2018-12-30T21:17:31.952Z,3.20
2018-12-30T21:19:58.038Z,3.20
2018-12-30T21:22:24.124Z,3.20
2018-12-30T21:24:50.211Z,3.20
2018-12-30T21:27:16.279Z,3.10
2018-12-30T21:29:42.421Z,3.10
2018-12-30T21:32:08.540Z,3.10
2018-12-30T21:34:34.616Z,3.10
2018-12-30T21:37:00.717Z,3.10
2018-12-30T21:39:26.827Z,3.10
2018-12-30T21:41:52.895Z,3.00
2018-12-30T21:44:18.983Z,3.00
2018-12-30T21:46:45.055Z,3.00
2018-12-30T21:49:11.145Z,3.00
2018-12-30T21:51:37.248Z,3.00
2018-12-30T21:54:03.348Z,3.10
2018-12-30T21:56:29.453Z,3.10
2018-12-30T21:58:55.609Z,3.10
2018-12-30T22:01:21.687Z,3.10
2018-12-30T22:03:47.773Z,3.10
2018-12-30T22:06:13.845Z,3.20
2018-12-30T22:08:39.945Z,3.00
2018-12-30T22:11:06.034Z,3.00
2018-12-30T22:13:32.107Z,3.00
2018-12-30T22:15:58.195Z,3.10
2018-12-30T22:18:24.363Z,3.10
2018-12-30T22:20:50.451Z,3.10
2018-12-30T22:23:16.524Z,3.00
2018-12-30T22:25:42.611Z,3.00
2018-12-30T22:28:08.675Z,3.10
2018-12-30T22:30:34.883Z,3.10
2018-12-30T22:33:00.956Z,3.10
2018-12-30T22:35:27.055Z,3.10
2018-12-30T22:37:53.126Z,3.00
2018-12-30T22:40:19.224Z,3.00
2018-12-30T22:42:45.273Z,2.90
2018-12-30T22:45:11.364Z,3.00
2018-12-30T22:47:37.408Z,3.00
2018-12-30T22:50:05.676Z,3.00
2018-12-30T22:52:31.720Z,2.90
2018-12-30T22:54:57.807Z,2.90
2018-12-30T22:57:23.882Z,2.80
2018-12-30T22:59:49.960Z,2.90
2018-12-30T23:02:16.135Z,3.10
2018-12-30T23:04:42.227Z,3.10
2018-12-30T23:07:08.290Z,3.10
2018-12-30T23:09:36.214Z,3.00
2018-12-30T23:12:02.480Z,3.00
2018-12-30T23:14:28.543Z,3.00
2018-12-30T23:16:54.627Z,3.00
2018-12-30T23:19:20.699Z,3.00
2018-12-30T23:21:46.800Z,2.90
2018-12-30T23:24:12.889Z,2.90
2018-12-30T23:26:39.020Z,3.00
2018-12-30T23:29:05.176Z,2.80
2018-12-30T23:31:31.348Z,2.80
2018-12-30T23:33:59.856Z,2.80
2018-12-30T23:36:25.956Z,1.90
2018-12-30T23:38:52.027Z,2.80
2018-12-30T23:41:18.119Z,2.80
2018-12-30T23:43:44.232Z,2.70
2018-12-30T23:46:10.328Z,2.70
2018-12-30T23:48:36.408Z,2.80
2018-12-30T23:51:02.502Z,2.80
2018-12-30T23:53:28.568Z,2.70
2018-12-30T23:55:54.668Z,2.80
2018-12-30T23:58:20.735Z,2.70
